Time;durP1;ratioP1;P1;durP2;ratioP2;P2;SDS_P1;SDS_P2;PMS_P1;PMS_P2;Temp;Humidity;BMP_temperature;BMP_pressure;BME280_temperature;BME280_humidity;BME280_pressure;Samples;Min_cycle;Max_cycle;Signal;HPM_P1;HPM_P2
2021/12/15 00:01:26;;;;;;;38.40;21.10;;;;;;;-140.05;100.00;61859.38;5042418;28;20197;-63
2021/12/15 00:03:54;;;;;;;36.80;20.67;;;;;;;-140.05;100.00;61859.38;5039778;28;20200;-60
2021/12/15 00:06:21;;;;;;;38.17;20.48;;;;;;;-140.05;100.00;61859.38;5040908;28;20930;-61
2021/12/15 00:08:52;;;;;;;37.25;21.30;;;;;;;-140.05;100.00;61859.38;5040569;28;20212;-62
2021/12/15 00:11:20;;;;;;;38.03;21.42;;;;;;;-140.05;100.00;61859.38;5052525;28;20659;-64
2021/12/15 00:13:48;;;;;;;36.15;21.17;;;;;;;-140.05;100.00;61859.38;5052322;28;20710;-62
2021/12/15 00:16:16;;;;;;;41.95;22.88;;;;;;;-140.05;100.00;61859.38;5052293;28;20246;-61
2021/12/15 00:18:44;;;;;;;42.33;22.50;;;;;;;-140.05;100.00;61859.38;5052094;28;20197;-62
2021/12/15 00:21:14;;;;;;;40.90;22.40;;;;;;;-140.05;100.00;61859.38;5052526;28;20200;-62
2021/12/15 00:23:43;;;;;;;40.03;22.02;;;;;;;-140.05;100.00;61859.38;5035532;28;20211;-61
2021/12/15 00:26:10;;;;;;;35.60;20.60;;;;;;;-140.05;100.00;61859.38;5037989;28;20315;-62
2021/12/15 00:28:39;;;;;;;38.00;21.85;;;;;;;-140.05;100.00;61859.38;5057003;28;20583;-60
2021/12/15 00:31:06;;;;;;;40.67;22.42;;;;;;;-140.05;100.00;61859.38;5057502;28;20216;-62
2021/12/15 00:33:38;;;;;;;39.05;22.20;;;;;;;-140.05;100.00;61859.38;5041709;28;20193;-58
2021/12/15 00:36:05;;;;;;;38.35;21.20;;;;;;;-140.05;100.00;61859.38;5040331;28;20709;-59
2021/12/15 00:38:32;;;;;;;40.72;22.50;;;;;;;-140.05;100.00;61859.38;5039229;28;20215;-60
2021/12/15 00:41:00;;;;;;;39.03;22.67;;;;;;;-140.05;100.00;61859.38;5067073;28;20200;-60
2021/12/15 00:43:27;;;;;;;39.80;21.25;;;;;;;-140.05;100.00;61859.38;5050220;28;20222;-61
2021/12/15 00:45:54;;;;;;;39.80;22.45;;;;;;;-140.05;100.00;61859.38;5051994;28;20196;-62
2021/12/15 00:48:22;;;;;;;38.60;22.27;;;;;;;-140.05;100.00;61859.38;5050275;28;20663;-58
2021/12/15 00:50:50;;;;;;;37.78;20.20;;;;;;;-140.05;100.00;61859.38;5067480;28;20299;-61
2021/12/15 00:53:18;;;;;;;40.05;20.80;;;;;;;-140.05;100.00;61859.38;5047268;28;20262;-63
2021/12/15 00:55:45;;;;;;;38.65;21.05;;;;;;;-140.05;100.00;61859.38;5043590;28;20293;-61
2021/12/15 00:58:13;;;;;;;38.80;20.88;;;;;;;-140.05;100.00;61859.38;5051227;28;20196;-63
2021/12/15 01:00:44;;;;;;;36.67;20.25;;;;;;;-140.05;100.00;61859.38;5051646;28;20280;-59
2021/12/15 01:03:13;;;;;;;37.28;20.02;;;;;;;-140.05;100.00;61859.38;5041275;28;20212;-60
2021/12/15 01:05:44;;;;;;;31.65;15.65;;;;;;;-140.05;100.00;61859.38;5051712;28;20184;-61
2021/12/15 01:08:18;;;;;;;33.80;19.45;;;;;;;-140.05;100.00;61859.38;5049377;28;20563;-59
2021/12/15 01:11:10;;;;;;;35.47;20.08;;;;;;;-140.05;100.00;61859.38;5027761;28;20671;-60
2021/12/15 01:22:02;;;;;;;31.77;17.73;;;;;;;-140.05;100.00;61859.38;5051616;28;20201;-61
2021/12/15 01:24:30;;;;;;;30.27;17.92;;;;;;;-140.05;100.00;61859.38;5040637;28;21056;-61
2021/12/15 01:26:57;;;;;;;33.00;17.50;;;;;;;-140.05;100.00;61859.38;5042438;28;20208;-62
2021/12/15 01:29:24;;;;;;;30.10;15.63;;;;;;;-140.05;100.00;61859.38;5049572;28;20639;-63
2021/12/15 01:31:51;;;;;;;32.25;17.23;;;;;;;-140.05;100.00;61859.38;5029851;28;20211;-60
2021/12/15 01:34:19;;;;;;;33.20;18.85;;;;;;;-140.05;100.00;61859.38;5053624;28;20204;-59
2021/12/15 01:36:46;;;;;;;34.08;18.60;;;;;;;-140.05;100.00;61859.38;5038546;28;20935;-61
2021/12/15 01:39:13;;;;;;;31.60;17.65;;;;;;;-140.05;100.00;61859.38;5044312;28;20608;-60
2021/12/15 01:41:42;;;;;;;33.58;18.55;;;;;;;-140.05;100.00;61859.38;5049524;28;20211;-63
2021/12/15 01:46:56;;;;;;;30.40;17.30;;;;;;;-140.05;100.00;61859.38;5036280;28;20203;-59
2021/12/15 01:49:44;;;;;;;33.13;17.98;;;;;;;-140.05;100.00;61859.38;5055858;28;20308;-58
2021/12/15 01:52:31;;;;;;;31.98;17.67;;;;;;;-140.05;100.00;61859.38;5049953;28;20295;-59
2021/12/15 01:55:25;;;;;;;33.63;17.40;;;;;;;-140.05;100.00;61859.38;5050014;28;20229;-60
2021/12/15 01:57:54;;;;;;;34.35;17.90;;;;;;;-140.05;100.00;61859.38;5063604;28;20818;-62
2021/12/15 02:00:31;;;;;;;29.98;16.45;;;;;;;-140.05;100.00;61859.38;5036853;28;20295;-62
2021/12/15 02:02:58;;;;;;;31.15;16.98;;;;;;;-140.05;100.00;61859.38;5041759;28;20196;-64
2021/12/15 02:05:29;;;;;;;30.83;17.33;;;;;;;-140.05;100.00;61859.38;5041359;28;20215;-60
2021/12/15 02:07:59;;;;;;;26.42;14.55;;;;;;;-140.05;100.00;61859.38;5039599;28;20274;-61
2021/12/15 02:10:30;;;;;;;32.95;18.65;;;;;;;-140.05;100.00;61859.38;5038340;28;20319;-61
2021/12/15 02:12:59;;;;;;;32.22;17.75;;;;;;;-140.05;100.00;61859.38;5046837;28;20271;-64
2021/12/15 02:15:30;;;;;;;34.92;18.85;;;;;;;-140.05;100.00;61859.38;5035214;28;20214;-62
2021/12/15 02:17:58;;;;;;;32.10;17.90;;;;;;;-140.05;100.00;61859.38;5040945;28;20192;-62
2021/12/15 02:20:47;;;;;;;31.60;17.58;;;;;;;-140.05;100.00;61859.38;5039397;28;20215;-63
2021/12/15 02:23:20;;;;;;;32.15;17.27;;;;;;;-140.05;100.00;61859.38;5049875;28;20201;-58
2021/12/15 02:25:49;;;;;;;32.80;17.50;;;;;;;-140.05;100.00;61859.38;5039622;28;20262;-61
2021/12/15 02:28:17;;;;;;;30.10;17.15;;;;;;;-140.05;100.00;61859.38;5053425;28;20200;-64
2021/12/15 02:30:56;;;;;;;31.48;17.67;;;;;;;-140.05;100.00;61859.38;5040710;28;20239;-60
2021/12/15 02:38:56;;;;;;;28.10;16.00;;;;;;;-140.05;100.00;61859.38;5039122;28;20898;-61
2021/12/15 02:41:24;;;;;;;34.22;17.70;;;;;;;-140.05;100.00;61859.38;5050078;28;20196;-62
2021/12/15 02:43:54;;;;;;;31.48;17.27;;;;;;;-140.05;100.00;61859.38;5048048;28;20192;-61
2021/12/15 02:46:22;;;;;;;29.85;15.95;;;;;;;-140.05;100.00;61859.38;5029460;28;20203;-60
2021/12/15 02:48:50;;;;;;;26.67;15.80;;;;;;;-140.05;100.00;61859.38;5031445;28;20200;-59
2021/12/15 02:51:20;;;;;;;22.63;11.82;;;;;;;-140.05;100.00;61859.38;5035210;28;20240;-61
2021/12/15 02:53:47;;;;;;;32.50;18.13;;;;;;;-140.05;100.00;61859.38;5036557;28;20639;-62
2021/12/15 02:56:15;;;;;;;31.88;17.85;;;;;;;-140.05;100.00;61859.38;5040317;28;20228;-60
2021/12/15 02:58:51;;;;;;;32.53;17.38;;;;;;;-140.05;100.00;61859.38;5039103;28;20193;-63
2021/12/15 03:01:32;;;;;;;32.58;17.92;;;;;;;-140.05;100.00;61859.38;5034122;28;20207;-63
2021/12/15 03:07:00;;;;;;;29.38;15.85;;;;;;;-140.05;100.00;61859.38;5038561;28;20204;-59
2021/12/15 03:17:40;;;;;;;31.67;15.15;;;;;;;-140.05;100.00;61859.38;5036083;28;20211;-61
2021/12/15 03:20:09;;;;;;;31.02;16.65;;;;;;;-140.05;100.00;61859.38;5038989;28;20188;-63
2021/12/15 03:22:37;;;;;;;30.40;16.52;;;;;;;-140.05;100.00;61859.38;5041246;28;20203;-59
2021/12/15 03:25:06;;;;;;;28.58;15.05;;;;;;;-140.05;100.00;61859.38;5041372;28;20541;-59
2021/12/15 03:36:03;;;;;;;25.73;14.18;;;;;;;-140.05;100.00;61859.38;5035380;28;20184;-62
2021/12/15 03:38:31;;;;;;;28.67;15.23;;;;;;;-140.05;100.00;61859.38;5040978;28;20266;-63
2021/12/15 03:40:58;;;;;;;22.25;11.25;;;;;;;-140.05;100.00;61859.38;5048771;28;20228;-61
2021/12/15 03:43:25;;;;;;;24.10;13.27;;;;;;;-140.05;100.00;61859.38;5048884;28;20204;-62
2021/12/15 03:45:55;;;;;;;24.35;13.75;;;;;;;-140.05;100.00;61859.38;5034388;28;20193;-59
2021/12/15 03:48:26;;;;;;;27.10;12.60;;;;;;;-140.05;100.00;61859.38;5025874;28;20193;-63
2021/12/15 03:50:56;;;;;;;24.27;13.70;;;;;;;-140.05;100.00;61859.38;5040015;28;20224;-61
2021/12/15 03:53:24;;;;;;;22.20;12.85;;;;;;;-140.05;100.00;61859.38;5046272;28;20207;-59
2021/12/15 03:55:51;;;;;;;24.20;13.65;;;;;;;-140.05;100.00;61859.38;5048510;28;20232;-60
2021/12/15 03:58:23;;;;;;;23.85;13.00;;;;;;;-140.05;100.00;61859.38;5048980;28;20689;-62
2021/12/15 04:01:00;;;;;;;23.20;12.95;;;;;;;-140.05;100.00;61859.38;5045607;28;20205;-59
2021/12/15 04:03:35;;;;;;;26.13;13.70;;;;;;;-140.05;100.00;61859.38;5032358;28;20192;-61
2021/12/15 04:06:24;;;;;;;23.30;11.50;;;;;;;-140.05;100.00;61859.38;5054467;28;20891;-64
2021/12/15 04:08:52;;;;;;;25.80;13.20;;;;;;;-140.05;100.00;61859.38;5041596;28;20303;-63
2021/12/15 04:11:23;;;;;;;23.33;13.20;;;;;;;-140.05;100.00;61859.38;5046886;28;20223;-63
2021/12/15 04:13:51;;;;;;;26.73;14.38;;;;;;;-140.05;100.00;61859.38;5051995;28;20176;-61
2021/12/15 04:19:02;;;;;;;25.30;13.30;;;;;;;-140.05;100.00;61859.38;5051326;28;20204;-62
2021/12/15 04:21:29;;;;;;;25.95;12.98;;;;;;;-140.05;100.00;61859.38;5052811;28;20690;-61
2021/12/15 04:23:57;;;;;;;24.60;13.60;;;;;;;-140.05;100.00;61859.38;5051269;28;20208;-64
2021/12/15 04:26:26;;;;;;;24.88;14.02;;;;;;;-140.05;100.00;61859.38;5052334;28;20208;-63
2021/12/15 04:28:54;;;;;;;23.98;14.00;;;;;;;-140.05;100.00;61859.38;5051935;28;20200;-62
2021/12/15 04:31:25;;;;;;;24.98;12.30;;;;;;;-140.05;100.00;61859.38;5040133;28;20227;-63
2021/12/15 04:33:56;;;;;;;21.48;11.13;;;;;;;-140.05;100.00;61859.38;5044056;28;20210;-61
2021/12/15 04:36:27;;;;;;;26.25;13.82;;;;;;;-140.05;100.00;61859.38;5052259;28;20314;-64
2021/12/15 04:38:56;;;;;;;25.52;14.60;;;;;;;-140.05;100.00;61859.38;5051363;28;20199;-61
2021/12/15 04:41:24;;;;;;;28.10;14.27;;;;;;;-140.05;100.00;61859.38;5052034;28;20195;-63
2021/12/15 04:44:11;;;;;;;27.92;14.70;;;;;;;-140.05;100.00;61859.38;5051192;28;20926;-61
2021/12/15 04:46:42;;;;;;;25.02;13.75;;;;;;;-140.05;100.00;61859.38;5035292;28;20212;-62
2021/12/15 04:49:12;;;;;;;22.95;12.18;;;;;;;-140.05;100.00;61859.38;5051200;28;20200;-62
2021/12/15 04:51:40;;;;;;;25.90;14.18;;;;;;;-140.05;100.00;61859.38;5051306;28;20228;-62
2021/12/15 04:54:07;;;;;;;24.80;14.15;;;;;;;-140.05;100.00;61859.38;5050746;28;20274;-63
2021/12/15 04:56:35;;;;;;;25.65;12.82;;;;;;;-140.05;100.00;61859.38;5051450;28;20240;-59
2021/12/15 04:59:02;;;;;;;23.65;13.45;;;;;;;-140.05;100.00;61859.38;5051465;28;20271;-61
2021/12/15 05:01:29;;;;;;;29.52;13.63;;;;;;;-140.05;100.00;61859.38;5045860;28;20200;-64
2021/12/15 05:03:58;;;;;;;21.02;12.40;;;;;;;-140.05;100.00;61859.38;5051464;28;20555;-63
2021/12/15 05:06:25;;;;;;;23.98;12.10;;;;;;;-140.05;100.00;61859.38;5051796;28;20694;-62
2021/12/15 05:08:52;;;;;;;25.08;14.40;;;;;;;-140.05;100.00;61859.38;5051577;28;20196;-60
2021/12/15 05:11:19;;;;;;;25.55;14.70;;;;;;;-140.05;100.00;61859.38;5051173;28;20703;-64
2021/12/15 05:13:46;;;;;;;28.58;13.23;;;;;;;-140.05;100.00;61859.38;5051056;28;20562;-60
2021/12/15 05:16:16;;;;;;;28.23;14.63;;;;;;;-140.05;100.00;61859.38;5050859;28;20199;-61
2021/12/15 05:18:44;;;;;;;27.38;15.38;;;;;;;-140.05;100.00;61859.38;5050080;28;20188;-59
2021/12/15 05:21:11;;;;;;;29.02;15.48;;;;;;;-140.05;100.00;61859.38;5051372;28;20246;-65
2021/12/15 05:23:43;;;;;;;30.70;16.48;;;;;;;-140.05;100.00;61859.38;5051436;28;20669;-61
2021/12/15 05:26:11;;;;;;;30.15;15.93;;;;;;;-140.05;100.00;61859.38;5050937;28;20196;-61
2021/12/15 05:28:39;;;;;;;27.90;15.40;;;;;;;-140.05;100.00;61859.38;5049858;28;20675;-60
2021/12/15 05:31:06;;;;;;;29.25;15.57;;;;;;;-140.05;100.00;61859.38;5050927;28;20222;-61
2021/12/15 05:33:33;;;;;;;30.52;16.13;;;;;;;-140.05;100.00;61859.38;5050873;28;20219;-57
2021/12/15 05:36:00;;;;;;;29.92;16.30;;;;;;;-140.05;100.00;61859.38;5050693;28;20203;-58
2021/12/15 05:38:27;;;;;;;27.70;16.20;;;;;;;-140.05;100.00;61859.38;5050473;28;20701;-62
2021/12/15 05:40:56;;;;;;;25.33;14.45;;;;;;;-140.05;100.00;61859.38;5050677;28;20191;-60
2021/12/15 05:43:24;;;;;;;29.05;16.90;;;;;;;-140.05;100.00;61859.38;5049995;28;20562;-62
2021/12/15 05:45:51;;;;;;;26.45;13.68;;;;;;;-140.05;100.00;61859.38;5050798;28;20271;-63
2021/12/15 05:48:20;;;;;;;29.20;16.55;;;;;;;-140.05;100.00;61859.38;5050465;28;20623;-61
2021/12/15 05:50:49;;;;;;;26.30;15.20;;;;;;;-140.05;100.00;61859.38;5050789;28;20228;-62
2021/12/15 05:53:17;;;;;;;26.77;15.50;;;;;;;-140.05;100.00;61859.38;5050213;28;20211;-61
2021/12/15 05:55:46;;;;;;;30.92;16.35;;;;;;;-140.05;100.00;61859.38;5049062;28;20236;-59
2021/12/15 05:58:13;;;;;;;25.25;15.02;;;;;;;-140.05;100.00;61859.38;5049942;28;20200;-57
2021/12/15 06:00:43;;;;;;;28.40;15.30;;;;;;;-140.05;100.00;61859.38;5050556;28;20200;-62
2021/12/15 06:03:10;;;;;;;30.95;18.88;;;;;;;-140.05;100.00;61859.38;5049889;28;20195;-60
2021/12/15 06:05:38;;;;;;;37.65;21.25;;;;;;;-140.05;100.00;61859.38;5050130;28;20223;-62
2021/12/15 06:08:05;;;;;;;47.20;25.27;;;;;;;-140.05;100.00;61859.38;5049941;28;20215;-62
2021/12/15 06:10:35;;;;;;;26.70;14.80;;;;;;;-140.05;100.00;61859.38;5049946;28;20295;-60
2021/12/15 06:13:05;;;;;;;23.15;14.18;;;;;;;-140.05;100.00;61859.38;5049714;28;20613;-59
2021/12/15 06:15:33;;;;;;;26.42;14.70;;;;;;;-140.05;100.00;61859.38;5050059;28;20226;-56
2021/12/15 06:18:09;;;;;;;24.85;12.65;;;;;;;-140.05;100.00;61859.38;5049907;28;20204;-63
2021/12/15 06:20:38;;;;;;;23.25;13.18;;;;;;;-140.05;100.00;61859.38;5050339;28;20279;-62
2021/12/15 06:23:10;;;;;;;27.52;14.90;;;;;;;-140.05;100.00;61859.38;5050847;28;20215;-62
2021/12/15 06:25:40;;;;;;;24.45;12.98;;;;;;;-140.05;100.00;61859.38;5050068;28;20215;-60
2021/12/15 06:28:07;;;;;;;20.65;13.18;;;;;;;-140.05;100.00;61859.38;5049296;28;20204;-60
2021/12/15 06:30:37;;;;;;;21.25;11.25;;;;;;;-140.05;100.00;61859.38;5049163;28;20223;-60
2021/12/15 06:33:06;;;;;;;23.02;12.13;;;;;;;-140.05;100.00;61859.38;5049121;28;20193;-61
2021/12/15 06:35:35;;;;;;;19.35;11.55;;;;;;;-140.05;100.00;61859.38;5049935;28;20271;-60
2021/12/15 06:38:04;;;;;;;23.50;13.75;;;;;;;-140.05;100.00;61859.38;5049628;28;21143;-60
2021/12/15 06:40:32;;;;;;;24.67;12.02;;;;;;;-140.05;100.00;61859.38;5050231;28;20651;-61
2021/12/15 06:42:59;;;;;;;24.70;14.68;;;;;;;-140.05;100.00;61859.38;5049198;28;20772;-60
2021/12/15 06:45:34;;;;;;;24.00;13.18;;;;;;;-140.05;100.00;61859.38;5049548;28;20207;-59
2021/12/15 06:59:05;;;;;;;20.95;11.95;;;;;;;-140.05;100.00;61859.38;5049313;28;20204;-58
2021/12/15 07:01:33;;;;;;;22.50;12.38;;;;;;;-140.05;100.00;61859.38;5049661;28;20196;-60
2021/12/15 07:04:00;;;;;;;15.48;8.27;;;;;;;-140.05;100.00;61859.38;5049075;28;20196;-60
2021/12/15 07:06:27;;;;;;;21.05;13.18;;;;;;;-140.05;100.00;61859.38;5049317;28;20192;-58
2021/12/15 07:08:54;;;;;;;23.42;11.80;;;;;;;-140.05;100.00;61859.38;5049406;28;20611;-58
2021/12/15 07:11:22;;;;;;;21.08;11.93;;;;;;;-140.05;100.00;61859.38;5049029;28;20235;-59
2021/12/15 07:13:50;;;;;;;19.92;12.20;;;;;;;-140.05;100.00;61859.38;5049135;28;20189;-57
2021/12/15 07:16:19;;;;;;;20.10;10.90;;;;;;;-140.05;100.00;61859.38;5049530;28;20177;-61
2021/12/15 07:19:03;;;;;;;18.83;8.93;;;;;;;-140.05;100.00;61859.38;5049406;28;20243;-59
2021/12/15 07:21:35;;;;;;;14.18;7.97;;;;;;;-140.05;100.00;61859.38;5049496;28;20203;-59
2021/12/15 07:24:03;;;;;;;22.67;10.68;;;;;;;-140.05;100.00;61859.38;5049217;28;20632;-59
2021/12/15 07:26:30;;;;;;;19.65;11.90;;;;;;;-140.05;100.00;61859.38;5049303;28;20200;-59
2021/12/15 07:28:56;;;;;;;19.42;11.40;;;;;;;-140.05;100.00;61859.38;5048897;28;20580;-57
2021/12/15 07:31:23;;;;;;;17.77;10.35;;;;;;;-140.05;100.00;61859.38;5049183;28;20228;-61
2021/12/15 07:33:50;;;;;;;16.80;8.40;;;;;;;-140.05;100.00;61859.38;5050906;28;20211;-59
2021/12/15 07:36:17;;;;;;;18.30;11.45;;;;;;;-140.05;100.00;61859.38;5051855;28;20194;-59
2021/12/15 07:38:44;;;;;;;16.33;8.57;;;;;;;-140.05;100.00;61859.38;5049289;28;20189;-60
2021/12/15 07:41:41;;;;;;;17.90;10.82;;;;;;;-140.05;100.00;61859.38;5051035;28;20193;-60
2021/12/15 07:44:08;;;;;;;19.38;10.48;;;;;;;-140.05;100.00;61859.38;5052504;28;20219;-59
2021/12/15 07:46:52;;;;;;;19.70;11.45;;;;;;;-140.05;100.00;61859.38;5053244;28;20729;-61
2021/12/15 07:49:22;;;;;;;20.48;11.82;;;;;;;-140.05;100.00;61859.38;5052916;28;20196;-61
2021/12/15 07:51:52;;;;;;;21.08;11.30;;;;;;;-140.05;100.00;61859.38;5053002;28;20228;-61
2021/12/15 07:54:20;;;;;;;20.42;12.15;;;;;;;-140.05;100.00;61859.38;5052804;28;20212;-62
2021/12/15 07:56:47;;;;;;;21.05;12.90;;;;;;;-140.05;100.00;61859.38;5053154;28;20699;-59
2021/12/15 07:59:14;;;;;;;20.88;12.07;;;;;;;-140.05;100.00;61859.38;5052783;28;20688;-56
2021/12/15 08:01:41;;;;;;;21.15;11.18;;;;;;;-140.05;100.00;61859.38;5053052;28;20198;-60
2021/12/15 08:04:08;;;;;;;21.05;12.68;;;;;;;-140.05;100.00;61859.38;5052350;28;20266;-62
2021/12/15 08:06:35;;;;;;;21.83;11.82;;;;;;;-140.05;100.00;61859.38;5052775;28;20706;-59
2021/12/15 08:09:05;;;;;;;20.17;11.55;;;;;;;-140.05;100.00;61859.38;5052219;28;20192;-60
2021/12/15 08:11:34;;;;;;;21.30;12.80;;;;;;;-140.05;100.00;61859.38;5053011;28;20217;-57
2021/12/15 08:14:01;;;;;;;20.48;11.98;;;;;;;-140.05;100.00;61859.38;5052153;28;20185;-60
2021/12/15 08:16:28;;;;;;;20.08;11.98;;;;;;;-140.05;100.00;61859.38;5052858;28;20631;-62
2021/12/15 08:18:55;;;;;;;22.05;12.40;;;;;;;-140.05;100.00;61859.38;5052322;28;20674;-61
2021/12/15 08:21:28;;;;;;;23.63;12.88;;;;;;;-140.05;100.00;61859.38;5053275;28;20671;-63
2021/12/15 08:23:56;;;;;;;21.88;12.48;;;;;;;-140.05;100.00;61859.38;5052454;28;20208;-59
2021/12/15 08:26:26;;;;;;;22.35;13.68;;;;;;;-140.05;100.00;61859.38;5052233;28;20278;-60
2021/12/15 08:28:54;;;;;;;23.23;13.63;;;;;;;-140.05;100.00;61859.38;5034854;28;20199;-61
2021/12/15 08:31:21;;;;;;;22.98;13.38;;;;;;;-140.05;100.00;61859.38;5052430;28;20227;-61
2021/12/15 08:33:48;;;;;;;23.15;13.23;;;;;;;-140.05;100.00;61859.38;5052433;28;20933;-61
2021/12/15 08:36:16;;;;;;;24.23;14.00;;;;;;;-140.05;100.00;61859.38;5052671;28;20197;-63
2021/12/15 08:38:46;;;;;;;22.95;12.90;;;;;;;-140.05;100.00;61859.38;5051810;28;20216;-58
2021/12/15 08:41:19;;;;;;;23.75;14.80;;;;;;;-140.05;100.00;61859.38;5054569;28;20208;-60
2021/12/15 08:43:47;;;;;;;19.35;12.32;;;;;;;-140.05;100.00;61859.38;5052963;28;20311;-56
2021/12/15 08:46:21;;;;;;;23.67;12.57;;;;;;;-140.05;100.00;61859.38;5052316;28;20262;-60
2021/12/15 08:48:50;;;;;;;17.88;10.65;;;;;;;-140.05;100.00;61859.38;5052080;28;20198;-59
2021/12/15 08:51:25;;;;;;;22.75;11.82;;;;;;;-140.05;100.00;61859.38;5051914;28;20623;-60
2021/12/15 08:53:56;;;;;;;19.05;10.93;;;;;;;-140.05;100.00;61859.38;5051047;28;20184;-62
2021/12/15 08:56:24;;;;;;;21.63;12.48;;;;;;;-140.05;100.00;61859.38;5052086;28;20239;-61
2021/12/15 08:58:52;;;;;;;20.30;11.15;;;;;;;-140.05;100.00;61859.38;5051782;28;20169;-58
2021/12/15 09:01:20;;;;;;;22.85;11.52;;;;;;;-140.05;100.00;61859.38;5052100;28;20196;-62
2021/12/15 09:03:48;;;;;;;21.23;11.93;;;;;;;-140.05;100.00;61859.38;5051865;28;20560;-60
2021/12/15 09:06:15;;;;;;;22.08;11.63;;;;;;;-140.05;100.00;61859.38;5051623;28;20197;-62
2021/12/15 09:08:44;;;;;;;22.98;10.77;;;;;;;-140.05;100.00;61859.38;5051682;28;20189;-60
2021/12/15 09:11:18;;;;;;;18.38;11.65;;;;;;;-140.05;100.00;61859.38;5051723;28;20590;-60
2021/12/15 09:13:49;;;;;;;18.83;11.05;;;;;;;-140.05;100.00;61859.38;5051218;28;20196;-59
2021/12/15 09:16:17;;;;;;;20.25;11.18;;;;;;;-140.05;100.00;61859.38;5051212;28;20667;-58
2021/12/15 09:18:47;;;;;;;15.88;9.75;;;;;;;-140.05;100.00;61859.38;5050878;28;20192;-59
2021/12/15 09:21:18;;;;;;;21.13;12.45;;;;;;;-140.05;100.00;61859.38;5051308;28;20201;-59
2021/12/15 09:23:45;;;;;;;20.08;11.13;;;;;;;-140.05;100.00;61859.38;5051210;28;20223;-58
2021/12/15 09:26:13;;;;;;;19.73;11.40;;;;;;;-140.05;100.00;61859.38;5051006;28;20184;-62
2021/12/15 09:28:41;;;;;;;20.52;12.27;;;;;;;-140.05;100.00;61859.38;5051284;28;20200;-60
2021/12/15 09:31:09;;;;;;;18.60;11.25;;;;;;;-140.05;100.00;61859.38;5051575;28;20220;-63
2021/12/15 09:33:39;;;;;;;14.88;8.55;;;;;;;-140.05;100.00;61859.38;5051251;28;20273;-59
2021/12/15 09:36:06;;;;;;;19.90;11.30;;;;;;;-140.05;100.00;61859.38;5051355;28;20561;-61
2021/12/15 09:38:34;;;;;;;18.23;10.75;;;;;;;-140.05;100.00;61859.38;5050585;28;20855;-65
2021/12/15 09:41:08;;;;;;;21.52;12.10;;;;;;;-140.05;100.00;61859.38;5051440;28;20667;-59
2021/12/15 09:43:37;;;;;;;20.88;10.73;;;;;;;-140.05;100.00;61859.38;5051103;28;20664;-61
2021/12/15 09:46:18;;;;;;;19.80;11.85;;;;;;;-140.05;100.00;61859.38;5050831;28;20672;-61
2021/12/15 09:57:23;;;;;;;22.10;12.95;;;;;;;-140.05;100.00;61859.38;5050749;28;20205;-59
2021/12/15 10:03:02;;;;;;;23.05;13.25;;;;;;;-140.05;100.00;61859.38;5050783;28;20188;-58
2021/12/15 10:06:44;;;;;;;22.45;13.20;;;;;;;-140.05;100.00;61859.38;5050409;28;20603;-62
2021/12/15 10:19:37;;;;;;;22.70;12.82;;;;;;;-140.05;100.00;61859.38;5049524;28;20246;-60
2021/12/15 10:22:42;;;;;;;20.27;12.57;;;;;;;-140.05;100.00;61859.38;5050151;28;20205;-63
2021/12/15 10:25:26;;;;;;;48.28;23.65;;;;;;;-140.05;100.00;61859.38;5048231;28;20235;-60
2021/12/15 10:28:01;;;;;;;21.90;11.45;;;;;;;-140.05;100.00;61859.38;5050141;28;20195;-61
2021/12/15 10:30:39;;;;;;;24.00;12.13;;;;;;;-140.05;100.00;61859.38;5050144;28;20559;-61
2021/12/15 10:33:25;;;;;;;26.67;12.98;;;;;;;-140.05;100.00;61859.38;5048794;28;20244;-58
2021/12/15 10:36:06;;;;;;;22.58;13.88;;;;;;;-140.05;100.00;61859.38;5049203;28;20207;-59
2021/12/15 10:38:51;;;;;;;22.40;12.77;;;;;;;-140.05;100.00;61859.38;5049285;28;20208;-59
2021/12/15 10:41:28;;;;;;;21.88;12.35;;;;;;;-140.05;100.00;61859.38;5050222;28;20269;-59
2021/12/15 10:44:05;;;;;;;24.38;14.00;;;;;;;-140.05;100.00;61859.38;5049995;28;20214;-57
2021/12/15 10:46:39;;;;;;;25.38;13.45;;;;;;;-140.05;100.00;61859.38;5049431;28;20212;-59
2021/12/15 10:49:18;;;;;;;18.52;10.90;;;;;;;-140.05;100.00;61859.38;5049322;28;20668;-58
2021/12/15 10:51:51;;;;;;;24.52;14.30;;;;;;;-140.05;100.00;61859.38;5049966;28;20315;-61
2021/12/15 10:54:23;;;;;;;23.23;13.82;;;;;;;-140.05;100.00;61859.38;5049687;28;20212;-59
2021/12/15 10:57:10;;;;;;;23.73;13.60;;;;;;;-140.05;100.00;61859.38;5049735;28;20303;-54
2021/12/15 10:59:43;;;;;;;26.48;14.50;;;;;;;-140.05;100.00;61859.38;5049558;28;20200;-61
2021/12/15 11:02:32;;;;;;;25.05;14.15;;;;;;;-140.05;100.00;61859.38;5049265;28;20212;-59
2021/12/15 11:05:06;;;;;;;24.17;15.68;;;;;;;-140.05;100.00;61859.38;5049712;28;20609;-56
2021/12/15 11:07:37;;;;;;;25.25;15.23;;;;;;;-140.05;100.00;61859.38;5049028;28;20201;-62
2021/12/15 11:10:17;;;;;;;26.48;16.42;;;;;;;-140.05;100.00;61859.38;5049230;28;20592;-62
2021/12/15 11:12:48;;;;;;;24.75;14.00;;;;;;;-140.05;100.00;61859.38;5049647;28;20251;-61
2021/12/15 11:15:31;;;;;;;26.48;14.63;;;;;;;-140.05;100.00;61859.38;5049370;28;20204;-60
2021/12/15 11:18:02;;;;;;;28.90;15.23;;;;;;;-140.05;100.00;61859.38;5049006;28;20571;-58
2021/12/15 11:20:39;;;;;;;26.85;15.38;;;;;;;-140.05;100.00;61859.38;5049345;28;20609;-60
2021/12/15 11:23:08;;;;;;;32.15;15.63;;;;;;;-140.05;100.00;61859.38;5048878;28;20206;-59
2021/12/15 11:25:43;;;;;;;23.17;14.93;;;;;;;-140.05;100.00;61859.38;5048932;28;20204;-61
2021/12/15 11:28:26;;;;;;;29.75;14.90;;;;;;;-140.05;100.00;61859.38;5049188;28;20192;-58
2021/12/15 11:31:13;;;;;;;26.50;15.10;;;;;;;-140.05;100.00;61859.38;5049611;28;20204;-56
2021/12/15 11:33:44;;;;;;;27.33;15.98;;;;;;;-140.05;100.00;61859.38;5050573;28;20219;-59
2021/12/15 11:36:30;;;;;;;25.95;16.08;;;;;;;-140.05;100.00;61859.38;5050855;28;20196;-61
2021/12/15 11:39:02;;;;;;;29.88;16.80;;;;;;;-140.05;100.00;61859.38;5049150;28;20215;-59
2021/12/15 11:41:37;;;;;;;44.72;22.38;;;;;;;-140.05;100.00;61859.38;5049483;28;20665;-58
2021/12/15 11:44:12;;;;;;;31.38;18.40;;;;;;;-140.05;100.00;61859.38;5048879;28;20196;-58
2021/12/15 11:46:43;;;;;;;27.02;16.23;;;;;;;-140.05;100.00;61859.38;5048691;28;20215;-60
2021/12/15 11:49:15;;;;;;;27.63;16.00;;;;;;;-140.05;100.00;61859.38;5048825;28;20194;-58
2021/12/15 11:51:58;;;;;;;30.83;17.38;;;;;;;-140.05;100.00;61859.38;5049404;28;20586;-58
2021/12/15 11:54:38;;;;;;;23.20;14.63;;;;;;;-140.05;100.00;61859.38;5049135;28;20204;-59
2021/12/15 11:57:15;;;;;;;26.50;17.17;;;;;;;-140.05;100.00;61859.38;5048729;28;20651;-57
2021/12/15 11:59:45;;;;;;;23.63;12.57;;;;;;;-140.05;100.00;61859.38;5049413;28;20258;-61
2021/12/15 12:02:24;;;;;;;23.55;13.77;;;;;;;-140.05;100.00;61859.38;5048622;28;20204;-57
2021/12/15 12:04:56;;;;;;;25.08;14.10;;;;;;;-140.05;100.00;61859.38;5049418;28;20863;-62
2021/12/15 12:07:41;;;;;;;22.42;14.55;;;;;;;-140.05;100.00;61859.38;5048775;28;20216;-63
2021/12/15 12:10:25;;;;;;;25.15;14.48;;;;;;;-140.05;100.00;61859.38;5048948;28;20219;-62
2021/12/15 12:13:04;;;;;;;29.35;15.68;;;;;;;-140.05;100.00;61859.38;5048574;28;20610;-60
2021/12/15 12:15:34;;;;;;;26.63;16.23;;;;;;;-140.05;100.00;61859.38;5048905;28;20240;-61
2021/12/15 12:18:06;;;;;;;29.13;15.85;;;;;;;-140.05;100.00;61859.38;5048642;28;20204;-55
2021/12/15 12:20:43;;;;;;;27.90;13.82;;;;;;;-140.05;100.00;61859.38;5049340;28;20271;-61
2021/12/15 12:23:14;;;;;;;23.88;14.77;;;;;;;-140.05;100.00;61859.38;5048683;28;20238;-54
2021/12/15 12:25:51;;;;;;;26.38;15.23;;;;;;;-140.05;100.00;61859.38;5049281;28;20212;-58